sensor_id;sensor_type;location;lat;lon;timestamp;pressure;altitude;pressure_sealevel;temperature;humidity
16331;BME280;8275;48.206;16.340;2024-02-26T00:00:05;98007.78;;;12.11;42.72
16331;BME280;8275;48.206;16.340;2024-02-26T00:02:37;98004.53;;;12.09;42.93
16331;BME280;8275;48.206;16.340;2024-02-26T00:05:08;98002.66;;;12.04;42.92
16331;BME280;8275;48.206;16.340;2024-02-26T00:07:36;97998.03;;;11.99;42.89
16331;BME280;8275;48.206;16.340;2024-02-26T00:10:07;97997.31;;;11.94;42.83
16331;BME280;8275;48.206;16.340;2024-02-26T00:12:37;97989.16;;;11.89;43.31
16331;BME280;8275;48.206;16.340;2024-02-26T00:15:09;97997.44;;;11.84;43.38
16331;BME280;8275;48.206;16.340;2024-02-26T00:17:38;97993.09;;;11.83;43.46
16331;BME280;8275;48.206;16.340;2024-02-26T00:20:10;97992.03;;;11.79;43.12
16331;BME280;8275;48.206;16.340;2024-02-26T00:22:39;97989.06;;;11.75;43.39
16331;BME280;8275;48.206;16.340;2024-02-26T00:25:07;97991.56;;;11.72;43.29
16331;BME280;8275;48.206;16.340;2024-02-26T00:27:37;97985.56;;;11.70;43.40
16331;BME280;8275;48.206;16.340;2024-02-26T00:30:09;97990.53;;;11.68;43.66
16331;BME280;8275;48.206;16.340;2024-02-26T00:32:38;97980.66;;;11.67;43.74
16331;BME280;8275;48.206;16.340;2024-02-26T00:35:07;97980.41;;;11.63;43.53
16331;BME280;8275;48.206;16.340;2024-02-26T00:37:36;97985.91;;;11.63;43.47
16331;BME280;8275;48.206;16.340;2024-02-26T00:40:06;97979.91;;;11.61;43.75
16331;BME280;8275;48.206;16.340;2024-02-26T00:42:37;97979.31;;;11.64;43.64
16331;BME280;8275;48.206;16.340;2024-02-26T00:45:07;97972.69;;;11.65;43.61
16331;BME280;8275;48.206;16.340;2024-02-26T00:47:36;97977.09;;;11.66;43.91
16331;BME280;8275;48.206;16.340;2024-02-26T00:50:06;97974.91;;;11.68;43.77
16331;BME280;8275;48.206;16.340;2024-02-26T00:52:35;97969.09;;;11.70;43.95
16331;BME280;8275;48.206;16.340;2024-02-26T00:55:05;97973.50;;;11.71;44.04
16331;BME280;8275;48.206;16.340;2024-02-26T00:57:34;97966.88;;;11.72;44.11
16331;BME280;8275;48.206;16.340;2024-02-26T01:00:06;97968.22;;;11.74;43.79
16331;BME280;8275;48.206;16.340;2024-02-26T01:02:36;97966.03;;;11.76;43.83
16331;BME280;8275;48.206;16.340;2024-02-26T01:05:06;97954.22;;;11.76;44.10
16331;BME280;8275;48.206;16.340;2024-02-26T01:07:36;97951.19;;;11.77;43.89
16331;BME280;8275;48.206;16.340;2024-02-26T01:10:06;97955.84;;;11.77;44.02
16331;BME280;8275;48.206;16.340;2024-02-26T01:12:35;97948.75;;;11.76;44.46
16331;BME280;8275;48.206;16.340;2024-02-26T01:15:06;97944.34;;;11.75;44.13
16331;BME280;8275;48.206;16.340;2024-02-26T01:17:36;97948.22;;;11.74;44.29
16331;BME280;8275;48.206;16.340;2024-02-26T01:20:07;97933.69;;;11.73;44.26
16331;BME280;8275;48.206;16.340;2024-02-26T01:22:37;97938.66;;;11.71;44.72
16331;BME280;8275;48.206;16.340;2024-02-26T01:25:07;97927.97;;;11.70;44.33
16331;BME280;8275;48.206;16.340;2024-02-26T01:27:36;97920.03;;;11.68;44.35
16331;BME280;8275;48.206;16.340;2024-02-26T01:30:10;97920.59;;;11.65;44.72
16331;BME280;8275;48.206;16.340;2024-02-26T01:32:39;97923.63;;;11.64;44.74
16331;BME280;8275;48.206;16.340;2024-02-26T01:35:08;97914.88;;;11.62;44.76
16331;BME280;8275;48.206;16.340;2024-02-26T01:37:39;97911.31;;;11.61;44.91
16331;BME280;8275;48.206;16.340;2024-02-26T01:40:10;97910.28;;;11.57;44.97
16331;BME280;8275;48.206;16.340;2024-02-26T01:42:39;97913.31;;;11.56;44.80
16331;BME280;8275;48.206;16.340;2024-02-26T01:45:14;97909.53;;;11.52;45.23
16331;BME280;8275;48.206;16.340;2024-02-26T01:47:50;97909.84;;;11.50;44.96
16331;BME280;8275;48.206;16.340;2024-02-26T01:50:20;97906.59;;;11.48;45.18
16331;BME280;8275;48.206;16.340;2024-02-26T01:52:50;97898.94;;;11.45;44.95
16331;BME280;8275;48.206;16.340;2024-02-26T01:55:19;97902.25;;;11.42;44.89
16331;BME280;8275;48.206;16.340;2024-02-26T01:57:49;97900.13;;;11.39;45.03
16331;BME280;8275;48.206;16.340;2024-02-26T02:00:21;97898.78;;;11.37;45.09
16331;BME280;8275;48.206;16.340;2024-02-26T02:02:51;97906.19;;;11.36;45.46
16331;BME280;8275;48.206;16.340;2024-02-26T02:05:22;97903.22;;;11.33;45.39
16331;BME280;8275;48.206;16.340;2024-02-26T02:07:51;97910.91;;;11.30;45.59
16331;BME280;8275;48.206;16.340;2024-02-26T02:10:20;97907.13;;;11.26;45.41
16331;BME280;8275;48.206;16.340;2024-02-26T02:12:52;97910.44;;;11.23;45.74
16331;BME280;8275;48.206;16.340;2024-02-26T02:15:22;97903.09;;;11.19;45.34
16331;BME280;8275;48.206;16.340;2024-02-26T02:17:51;97900.16;;;11.15;45.80
16331;BME280;8275;48.206;16.340;2024-02-26T02:20:24;97898.00;;;11.12;45.86
16331;BME280;8275;48.206;16.340;2024-02-26T02:22:54;97904.59;;;11.11;45.99
16331;BME280;8275;48.206;16.340;2024-02-26T02:25:23;97905.16;;;11.08;45.93
16331;BME280;8275;48.206;16.340;2024-02-26T02:27:53;97902.72;;;11.07;46.31
16331;BME280;8275;48.206;16.340;2024-02-26T02:30:22;97900.25;;;11.05;46.27
16331;BME280;8275;48.206;16.340;2024-02-26T02:32:52;97897.00;;;11.03;45.89
16331;BME280;8275;48.206;16.340;2024-02-26T02:35:21;97888.25;;;11.01;45.89
16331;BME280;8275;48.206;16.340;2024-02-26T02:37:52;97888.84;;;10.98;46.25
16331;BME280;8275;48.206;16.340;2024-02-26T02:40:21;97888.31;;;10.96;46.29
16331;BME280;8275;48.206;16.340;2024-02-26T02:42:49;97884.53;;;10.92;46.14
16331;BME280;8275;48.206;16.340;2024-02-26T02:45:18;97884.31;;;10.89;46.22
16331;BME280;8275;48.206;16.340;2024-02-26T02:47:46;97877.19;;;10.88;46.58
16331;BME280;8275;48.206;16.340;2024-02-26T02:50:15;97875.03;;;10.85;46.15
16331;BME280;8275;48.206;16.340;2024-02-26T02:52:44;97872.59;;;10.83;46.56
16331;BME280;8275;48.206;16.340;2024-02-26T02:55:14;97867.41;;;10.82;46.69
16331;BME280;8275;48.206;16.340;2024-02-26T02:57:42;97861.63;;;10.83;46.55
16331;BME280;8275;48.206;16.340;2024-02-26T03:00:12;97864.59;;;10.87;46.41
16331;BME280;8275;48.206;16.340;2024-02-26T03:02:41;97860.47;;;10.89;46.26
16331;BME280;8275;48.206;16.340;2024-02-26T03:05:10;97860.97;;;10.91;46.35
16331;BME280;8275;48.206;16.340;2024-02-26T03:07:38;97855.22;;;10.93;46.18
16331;BME280;8275;48.206;16.340;2024-02-26T03:10:08;97863.13;;;10.94;46.21
16331;BME280;8275;48.206;16.340;2024-02-26T03:12:37;97870.53;;;10.94;46.56
16331;BME280;8275;48.206;16.340;2024-02-26T03:15:07;97854.41;;;10.92;46.32
16331;BME280;8275;48.206;16.340;2024-02-26T03:17:35;97849.75;;;10.93;46.52
16331;BME280;8275;48.206;16.340;2024-02-26T03:20:06;97845.38;;;10.92;46.36
16331;BME280;8275;48.206;16.340;2024-02-26T03:22:35;97851.66;;;10.92;46.32
16331;BME280;8275;48.206;16.340;2024-02-26T03:25:05;97849.22;;;10.91;46.17
16331;BME280;8275;48.206;16.340;2024-02-26T03:27:34;97852.75;;;10.91;46.25
16331;BME280;8275;48.206;16.340;2024-02-26T03:30:06;97855.50;;;10.91;46.63
16331;BME280;8275;48.206;16.340;2024-02-26T03:32:34;97858.53;;;10.90;46.38
16331;BME280;8275;48.206;16.340;2024-02-26T03:35:04;97854.47;;;10.87;46.21
16331;BME280;8275;48.206;16.340;2024-02-26T03:37:34;97854.47;;;10.87;46.21
16331;BME280;8275;48.206;16.340;2024-02-26T03:40:03;97849.28;;;10.86;46.70
16331;BME280;8275;48.206;16.340;2024-02-26T03:42:33;97853.63;;;10.87;46.58
16331;BME280;8275;48.206;16.340;2024-02-26T03:45:01;97846.53;;;10.86;46.44
16331;BME280;8275;48.206;16.340;2024-02-26T03:47:31;97848.16;;;10.87;46.49
16331;BME280;8275;48.206;16.340;2024-02-26T03:49:59;97845.41;;;10.87;46.81
16331;BME280;8275;48.206;16.340;2024-02-26T03:52:28;97846.25;;;10.87;46.60
16331;BME280;8275;48.206;16.340;2024-02-26T03:54:56;97848.97;;;10.87;46.49
16331;BME280;8275;48.206;16.340;2024-02-26T03:57:25;97850.91;;;10.87;46.76
16331;BME280;8275;48.206;16.340;2024-02-26T03:59:53;97845.41;;;10.87;46.80
16331;BME280;8275;48.206;16.340;2024-02-26T04:02:22;97844.63;;;10.86;46.43
16331;BME280;8275;48.206;16.340;2024-02-26T04:04:52;97842.69;;;10.87;46.33
16331;BME280;8275;48.206;16.340;2024-02-26T04:07:20;97842.69;;;10.87;46.76
16331;BME280;8275;48.206;16.340;2024-02-26T04:09:49;97839.94;;;10.87;46.51
16331;BME280;8275;48.206;16.340;2024-02-26T04:12:17;97843.81;;;10.86;46.74
16331;BME280;8275;48.206;16.340;2024-02-26T04:14:46;97842.16;;;10.85;46.33
16331;BME280;8275;48.206;16.340;2024-02-26T04:17:14;97844.09;;;10.84;46.28
16331;BME280;8275;48.206;16.340;2024-02-26T04:19:43;97843.56;;;10.82;46.59
16331;BME280;8275;48.206;16.340;2024-02-26T04:22:13;97840.03;;;10.82;46.61
16331;BME280;8275;48.206;16.340;2024-02-26T04:24:41;97841.13;;;10.81;46.55
16331;BME280;8275;48.206;16.340;2024-02-26T04:27:10;97830.16;;;10.81;46.38
16331;BME280;8275;48.206;16.340;2024-02-26T04:29:38;97827.72;;;10.79;46.83
16331;BME280;8275;48.206;16.340;2024-02-26T04:32:07;97840.59;;;10.79;46.95
16331;BME280;8275;48.206;16.340;2024-02-26T04:34:35;97837.34;;;10.77;46.56
16331;BME280;8275;48.206;16.340;2024-02-26T04:37:04;97826.38;;;10.77;46.66
16331;BME280;8275;48.206;16.340;2024-02-26T04:39:34;97831.34;;;10.75;46.68
16331;BME280;8275;48.206;16.340;2024-02-26T04:42:03;97836.00;;;10.74;47.02
16331;BME280;8275;48.206;16.340;2024-02-26T04:44:32;97825.88;;;10.75;46.94
16331;BME280;8275;48.206;16.340;2024-02-26T04:47:00;97830.81;;;10.73;47.07
16331;BME280;8275;48.206;16.340;2024-02-26T04:49:29;97830.56;;;10.69;46.86
16331;BME280;8275;48.206;16.340;2024-02-26T04:51:58;97841.84;;;10.68;46.82
16331;BME280;8275;48.206;16.340;2024-02-26T04:54:26;97845.44;;;10.63;46.92
16331;BME280;8275;48.206;16.340;2024-02-26T04:56:56;97842.19;;;10.61;47.11
16331;BME280;8275;48.206;16.340;2024-02-26T04:59:24;97845.50;;;10.58;46.84
16331;BME280;8275;48.206;16.340;2024-02-26T05:01:52;97844.16;;;10.55;46.96
16331;BME280;8275;48.206;16.340;2024-02-26T05:04:21;97847.47;;;10.52;46.97
16331;BME280;8275;48.206;16.340;2024-02-26T05:06:50;97840.66;;;10.50;46.99
16331;BME280;8275;48.206;16.340;2024-02-26T05:09:18;97844.81;;;10.47;47.31
16331;BME280;8275;48.206;16.340;2024-02-26T05:11:47;97843.47;;;10.45;47.03
16331;BME280;8275;48.206;16.340;2024-02-26T05:14:17;97843.22;;;10.41;47.42
16331;BME280;8275;48.206;16.340;2024-02-26T05:16:45;97838.03;;;10.40;47.18
16331;BME280;8275;48.206;16.340;2024-02-26T05:19:14;97843.00;;;10.38;47.26
16331;BME280;8275;48.206;16.340;2024-02-26T05:21:42;97838.09;;;10.35;47.26
16331;BME280;8275;48.206;16.340;2024-02-26T05:24:11;97841.38;;;10.32;47.64
16331;BME280;8275;48.206;16.340;2024-02-26T05:26:42;97837.03;;;10.31;47.70
16331;BME280;8275;48.206;16.340;2024-02-26T05:29:11;97841.16;;;10.28;47.86
16331;BME280;8275;48.206;16.340;2024-02-26T05:31:42;97839.50;;;10.27;47.88
16331;BME280;8275;48.206;16.340;2024-02-26T05:34:10;97845.00;;;10.27;47.73
16331;BME280;8275;48.206;16.340;2024-02-26T05:36:39;97837.91;;;10.26;47.98
16331;BME280;8275;48.206;16.340;2024-02-26T05:39:07;97847.19;;;10.25;48.08
16331;BME280;8275;48.206;16.340;2024-02-26T05:41:43;97840.38;;;10.23;47.71
16331;BME280;8275;48.206;16.340;2024-02-26T05:44:12;97843.13;;;10.23;47.87
16331;BME280;8275;48.206;16.340;2024-02-26T05:46:43;97843.13;;;10.23;48.09
16331;BME280;8275;48.206;16.340;2024-02-26T05:49:11;97854.38;;;10.21;48.24
16331;BME280;8275;48.206;16.340;2024-02-26T05:51:40;97858.72;;;10.22;48.07
16331;BME280;8275;48.206;16.340;2024-02-26T05:54:08;97857.09;;;10.21;48.09
16331;BME280;8275;48.206;16.340;2024-02-26T05:56:37;97859.84;;;10.21;48.11
16331;BME280;8275;48.206;16.340;2024-02-26T05:59:05;97871.63;;;10.22;48.24
16331;BME280;8275;48.206;16.340;2024-02-26T06:01:34;97870.78;;;10.21;48.12
16331;BME280;8275;48.206;16.340;2024-02-26T06:04:04;97874.03;;;10.23;48.24
16331;BME280;8275;48.206;16.340;2024-02-26T06:06:32;97885.53;;;10.25;48.60
16331;BME280;8275;48.206;16.340;2024-02-26T06:09:01;97880.56;;;10.27;48.19
16331;BME280;8275;48.206;16.340;2024-02-26T06:11:32;97877.28;;;10.30;48.60
16331;BME280;8275;48.206;16.340;2024-02-26T06:14:00;97882.19;;;10.33;48.66
16331;BME280;8275;48.206;16.340;2024-02-26T06:16:30;97879.97;;;10.35;48.44
16331;BME280;8275;48.206;16.340;2024-02-26T06:18:59;97872.78;;;10.39;48.35
16331;BME280;8275;48.206;16.340;2024-02-26T06:21:30;97880.16;;;10.44;48.71
16331;BME280;8275;48.206;16.340;2024-02-26T06:23:58;97879.56;;;10.47;48.49
16331;BME280;8275;48.206;16.340;2024-02-26T06:26:26;97877.88;;;10.51;48.46
16331;BME280;8275;48.206;16.340;2024-02-26T06:28:56;97876.19;;;10.55;48.42
16331;BME280;8275;48.206;16.340;2024-02-26T06:31:24;97882.44;;;10.61;48.51
16331;BME280;8275;48.206;16.340;2024-02-26T06:33:54;97883.19;;;10.66;48.38
16331;BME280;8275;48.206;16.340;2024-02-26T06:36:24;97889.44;;;10.72;48.17
16331;BME280;8275;48.206;16.340;2024-02-26T06:38:54;97894.03;;;10.76;48.56
16331;BME280;8275;48.206;16.340;2024-02-26T06:41:22;97897.81;;;10.80;48.78
16331;BME280;8275;48.206;16.340;2024-02-26T06:43:54;97898.59;;;10.86;48.77
16331;BME280;8275;48.206;16.340;2024-02-26T06:46:22;97900.16;;;10.92;48.27
16331;BME280;8275;48.206;16.340;2024-02-26T06:48:51;97909.66;;;10.99;48.52
16331;BME280;8275;48.206;16.340;2024-02-26T06:51:22;97905.75;;;11.05;48.47
16331;BME280;8275;48.206;16.340;2024-02-26T06:53:50;97899.13;;;11.11;48.38
16331;BME280;8275;48.206;16.340;2024-02-26T06:56:20;97897.94;;;11.17;48.65
16331;BME280;8275;48.206;16.340;2024-02-26T06:58:48;97902.22;;;11.23;48.43
16331;BME280;8275;48.206;16.340;2024-02-26T07:01:18;97896.41;;;11.30;48.18
16331;BME280;8275;48.206;16.340;2024-02-26T07:03:46;97897.66;;;11.38;48.54
16331;BME280;8275;48.206;16.340;2024-02-26T07:06:15;97900.34;;;11.43;48.48
16331;BME280;8275;48.206;16.340;2024-02-26T07:08:43;97901.63;;;11.50;48.53
16331;BME280;8275;48.206;16.340;2024-02-26T07:11:12;97894.94;;;11.56;48.17
16331;BME280;8275;48.206;16.340;2024-02-26T07:13:41;97892.63;;;11.63;48.37
16331;BME280;8275;48.206;16.340;2024-02-26T07:16:10;97896.38;;;11.72;48.09
16331;BME280;8275;48.206;16.340;2024-02-26T07:18:39;97903.94;;;11.80;47.94
16331;BME280;8275;48.206;16.340;2024-02-26T07:21:08;97901.34;;;11.89;48.31
16331;BME280;8275;48.206;16.340;2024-02-26T07:23:36;97910.53;;;11.98;48.08
16331;BME280;8275;48.206;16.340;2024-02-26T07:26:04;97903.56;;;12.06;48.01
16331;BME280;8275;48.206;16.340;2024-02-26T07:28:32;97900.44;;;12.12;47.69
16331;BME280;8275;48.206;16.340;2024-02-26T07:31:03;97900.84;;;12.19;47.83
16331;BME280;8275;48.206;16.340;2024-02-26T07:33:31;97904.84;;;12.27;48.00
16331;BME280;8275;48.206;16.340;2024-02-26T07:36:01;97903.06;;;12.36;47.97
16331;BME280;8275;48.206;16.340;2024-02-26T07:38:29;97904.28;;;12.43;47.88
16331;BME280;8275;48.206;16.340;2024-02-26T07:41:09;97895.34;;;12.51;47.71
16331;BME280;8275;48.206;16.340;2024-02-26T07:43:37;97898.22;;;12.60;47.38
16331;BME280;8275;48.206;16.340;2024-02-26T07:46:07;97895.28;;;12.70;47.53
16331;BME280;8275;48.206;16.340;2024-02-26T07:48:36;97894.78;;;12.82;47.50
16331;BME280;8275;48.206;16.340;2024-02-26T07:51:05;97889.91;;;12.92;47.50
16331;BME280;8275;48.206;16.340;2024-02-26T07:53:33;97889.72;;;13.02;47.35
16331;BME280;8275;48.206;16.340;2024-02-26T07:56:02;97906.84;;;13.13;47.15
16331;BME280;8275;48.206;16.340;2024-02-26T07:58:32;97899.81;;;13.20;47.26
16331;BME280;8275;48.206;16.340;2024-02-26T08:01:00;97912.56;;;13.30;47.09
16331;BME280;8275;48.206;16.340;2024-02-26T08:03:30;97912.31;;;13.40;46.88
16331;BME280;8275;48.206;16.340;2024-02-26T08:05:59;97910.78;;;13.48;46.87
16331;BME280;8275;48.206;16.340;2024-02-26T08:08:28;97912.34;;;13.54;46.52
16331;BME280;8275;48.206;16.340;2024-02-26T08:10:56;97909.44;;;13.59;46.66
16331;BME280;8275;48.206;16.340;2024-02-26T08:13:25;97914.53;;;13.65;46.44
16331;BME280;8275;48.206;16.340;2024-02-26T08:15:53;97911.88;;;13.74;46.34
16331;BME280;8275;48.206;16.340;2024-02-26T08:18:22;97908.88;;;13.84;46.15
16331;BME280;8275;48.206;16.340;2024-02-26T08:20:52;97913.66;;;13.92;46.12
16331;BME280;8275;48.206;16.340;2024-02-26T08:23:20;97914.22;;;14.02;46.13
16331;BME280;8275;48.206;16.340;2024-02-26T08:25:49;97911.22;;;14.13;46.02
16331;BME280;8275;48.206;16.340;2024-02-26T08:28:18;97917.94;;;14.20;45.90
16331;BME280;8275;48.206;16.340;2024-02-26T08:30:46;97913.09;;;14.26;45.67
16331;BME280;8275;48.206;16.340;2024-02-26T08:33:15;97911.09;;;14.31;45.58
16331;BME280;8275;48.206;16.340;2024-02-26T08:35:44;97902.06;;;14.39;45.45
16331;BME280;8275;48.206;16.340;2024-02-26T08:38:14;97910.41;;;14.48;45.33
16331;BME280;8275;48.206;16.340;2024-02-26T08:40:43;97901.69;;;14.54;45.08
16331;BME280;8275;48.206;16.340;2024-02-26T08:43:12;97898.47;;;14.61;45.06
16331;BME280;8275;48.206;16.340;2024-02-26T08:45:40;97900.59;;;14.64;44.93
16331;BME280;8275;48.206;16.340;2024-02-26T08:48:09;97904.03;;;14.69;44.71
16331;BME280;8275;48.206;16.340;2024-02-26T08:50:37;97906.81;;;14.78;44.63
16331;BME280;8275;48.206;16.340;2024-02-26T08:53:06;97904.41;;;14.85;44.59
16331;BME280;8275;48.206;16.340;2024-02-26T08:55:36;97903.16;;;14.91;44.33
16331;BME280;8275;48.206;16.340;2024-02-26T08:58:04;97900.78;;;14.98;44.25
16331;BME280;8275;48.206;16.340;2024-02-26T09:00:33;97896.72;;;15.04;44.10
16331;BME280;8275;48.206;16.340;2024-02-26T09:03:02;97899.84;;;15.11;44.06
16331;BME280;8275;48.206;16.340;2024-02-26T09:05:32;97896.81;;;15.21;43.89
16331;BME280;8275;48.206;16.340;2024-02-26T09:08:00;97901.22;;;15.31;43.80
16331;BME280;8275;48.206;16.340;2024-02-26T09:10:29;97898.47;;;15.39;43.87
16331;BME280;8275;48.206;16.340;2024-02-26T09:13:00;97905.34;;;15.51;43.56
16331;BME280;8275;48.206;16.340;2024-02-26T09:15:29;97902.31;;;15.61;43.43
16331;BME280;8275;48.206;16.340;2024-02-26T09:17:58;97901.69;;;15.72;43.38
16331;BME280;8275;48.206;16.340;2024-02-26T09:20:27;97898.56;;;15.82;43.01
16331;BME280;8275;48.206;16.340;2024-02-26T09:22:55;97908.50;;;15.92;42.88
16331;BME280;8275;48.206;16.340;2024-02-26T09:25:24;97899.72;;;15.98;42.69
16331;BME280;8275;48.206;16.340;2024-02-26T09:27:52;97900.06;;;16.05;42.59
16331;BME280;8275;48.206;16.340;2024-02-26T09:30:22;97898.91;;;16.15;42.36
16331;BME280;8275;48.206;16.340;2024-02-26T09:32:51;97900.56;;;16.25;42.34
16331;BME280;8275;48.206;16.340;2024-02-26T09:35:20;97897.44;;;16.35;42.00
16331;BME280;8275;48.206;16.340;2024-02-26T09:37:49;97903.28;;;16.42;41.68
16331;BME280;8275;48.206;16.340;2024-02-26T09:40:18;97891.41;;;16.50;41.43
16331;BME280;8275;48.206;16.340;2024-02-26T09:42:46;97893.06;;;16.59;41.13
16331;BME280;8275;48.206;16.340;2024-02-26T09:45:19;97903.28;;;16.67;41.13
16331;BME280;8275;48.206;16.340;2024-02-26T09:47:51;97903.75;;;16.78;40.70
16331;BME280;8275;48.206;16.340;2024-02-26T09:50:21;97899.78;;;16.88;40.59
16331;BME280;8275;48.206;16.340;2024-02-26T09:52:51;97907.91;;;17.01;40.34
16331;BME280;8275;48.206;16.340;2024-02-26T09:55:20;97897.63;;;17.10;40.16
16331;BME280;8275;48.206;16.340;2024-02-26T09:57:51;97896.75;;;17.18;39.66
16331;BME280;8275;48.206;16.340;2024-02-26T10:00:21;97891.50;;;17.25;39.54
16331;BME280;8275;48.206;16.340;2024-02-26T10:02:52;97897.00;;;17.34;39.34
16331;BME280;8275;48.206;16.340;2024-02-26T10:05:21;97888.19;;;17.40;38.78
16331;BME280;8275;48.206;16.340;2024-02-26T10:07:50;97895.97;;;17.47;38.98
16331;BME280;8275;48.206;16.340;2024-02-26T10:10:20;97905.38;;;17.54;38.84
16331;BME280;8275;48.206;16.340;2024-02-26T10:12:50;97910.91;;;17.63;38.28
16331;BME280;8275;48.206;16.340;2024-02-26T10:15:18;97905.13;;;17.68;38.25
16331;BME280;8275;48.206;16.340;2024-02-26T10:17:47;97914.06;;;17.74;37.86
16331;BME280;8275;48.206;16.340;2024-02-26T10:20:18;97900.84;;;17.79;37.65
16331;BME280;8275;48.206;16.340;2024-02-26T10:22:49;97898.38;;;17.86;37.80
16331;BME280;8275;48.206;16.340;2024-02-26T10:25:19;97903.84;;;17.95;37.71
16331;BME280;8275;48.206;16.340;2024-02-26T10:27:48;97903.44;;;18.05;37.77
16331;BME280;8275;48.206;16.340;2024-02-26T10:30:17;97904.50;;;18.12;37.51
16331;BME280;8275;48.206;16.340;2024-02-26T10:32:48;97894.84;;;18.18;37.50
16331;BME280;8275;48.206;16.340;2024-02-26T10:35:19;97896.25;;;18.24;37.17
16331;BME280;8275;48.206;16.340;2024-02-26T10:37:49;97896.53;;;18.32;37.06
16331;BME280;8275;48.206;16.340;2024-02-26T10:40:18;97894.81;;;18.39;36.98
16331;BME280;8275;48.206;16.340;2024-02-26T10:42:48;97894.31;;;18.46;36.79
16331;BME280;8275;48.206;16.340;2024-02-26T10:45:16;97894.56;;;18.53;36.58
16331;BME280;8275;48.206;16.340;2024-02-26T10:47:46;97899.19;;;18.61;36.67
16331;BME280;8275;48.206;16.340;2024-02-26T10:50:15;97891.59;;;18.70;36.47
16331;BME280;8275;48.206;16.340;2024-02-26T10:52:46;97890.72;;;18.78;36.25
16331;BME280;8275;48.206;16.340;2024-02-26T10:55:16;97891.06;;;18.88;35.96
16331;BME280;8275;48.206;16.340;2024-02-26T10:57:48;97891.22;;;19.04;36.00
16331;BME280;8275;48.206;16.340;2024-02-26T11:00:19;97894.84;;;19.29;35.92
16331;BME280;8275;48.206;16.340;2024-02-26T11:02:48;97876.56;;;19.64;35.70
16331;BME280;8275;48.206;16.340;2024-02-26T11:05:18;97878.34;;;19.96;34.98
16331;BME280;8275;48.206;16.340;2024-02-26T11:07:49;97885.25;;;20.26;34.55
16331;BME280;8275;48.206;16.340;2024-02-26T11:10:18;97876.22;;;20.57;34.28
16331;BME280;8275;48.206;16.340;2024-02-26T11:12:48;97873.84;;;20.87;33.86
16331;BME280;8275;48.206;16.340;2024-02-26T11:15:18;97872.53;;;21.12;33.54
16331;BME280;8275;48.206;16.340;2024-02-26T11:17:48;97866.69;;;21.33;32.97
16331;BME280;8275;48.206;16.340;2024-02-26T11:20:17;97863.56;;;21.50;33.31
16331;BME280;8275;48.206;16.340;2024-02-26T11:22:47;97866.13;;;21.58;32.66
16331;BME280;8275;48.206;16.340;2024-02-26T11:25:15;97861.72;;;21.73;32.30
16331;BME280;8275;48.206;16.340;2024-02-26T11:27:50;97859.06;;;21.96;32.35
16331;BME280;8275;48.206;16.340;2024-02-26T11:30:20;97857.78;;;22.28;32.14
16331;BME280;8275;48.206;16.340;2024-02-26T11:32:50;97853.69;;;22.60;31.81
16331;BME280;8275;48.206;16.340;2024-02-26T11:35:19;97846.16;;;22.83;31.42
16331;BME280;8275;48.206;16.340;2024-02-26T11:37:56;97842.50;;;23.02;30.53
16331;BME280;8275;48.206;16.340;2024-02-26T11:40:25;97839.19;;;23.19;29.89
16331;BME280;8275;48.206;16.340;2024-02-26T11:42:54;97832.22;;;23.32;29.78
16331;BME280;8275;48.206;16.340;2024-02-26T11:45:49;97825.84;;;23.32;29.73
16331;BME280;8275;48.206;16.340;2024-02-26T11:48:24;97825.72;;;23.25;29.13
16331;BME280;8275;48.206;16.340;2024-02-26T11:50:55;97833.47;;;23.12;28.84
16331;BME280;8275;48.206;16.340;2024-02-26T11:53:27;97828.03;;;22.96;28.08
16331;BME280;8275;48.206;16.340;2024-02-26T11:56:22;97834.75;;;22.73;28.68
16331;BME280;8275;48.206;16.340;2024-02-26T11:59:01;97832.94;;;22.61;28.36
16331;BME280;8275;48.206;16.340;2024-02-26T12:01:44;97832.72;;;22.51;28.23
16331;BME280;8275;48.206;16.340;2024-02-26T12:04:19;97836.53;;;22.43;28.32
16331;BME280;8275;48.206;16.340;2024-02-26T12:06:52;97838.00;;;22.36;28.32
16331;BME280;8275;48.206;16.340;2024-02-26T12:09:34;97827.53;;;22.30;28.49
16331;BME280;8275;48.206;16.340;2024-02-26T12:12:05;97826.66;;;22.26;28.57
16331;BME280;8275;48.206;16.340;2024-02-26T12:14:35;97832.13;;;22.22;28.52
16331;BME280;8275;48.206;16.340;2024-02-26T12:17:05;97820.53;;;22.20;28.63
16331;BME280;8275;48.206;16.340;2024-02-26T12:19:36;97829.00;;;22.24;27.99
16331;BME280;8275;48.206;16.340;2024-02-26T12:22:13;97825.97;;;22.32;28.00
16331;BME280;8275;48.206;16.340;2024-02-26T12:24:44;97823.03;;;22.45;27.28
16331;BME280;8275;48.206;16.340;2024-02-26T12:27:13;97827.66;;;22.56;27.72
16331;BME280;8275;48.206;16.340;2024-02-26T12:29:42;97816.41;;;22.72;27.14
16331;BME280;8275;48.206;16.340;2024-02-26T12:32:13;97801.09;;;22.85;27.03
16331;BME280;8275;48.206;16.340;2024-02-26T12:34:41;97806.78;;;22.92;26.85
16331;BME280;8275;48.206;16.340;2024-02-26T12:37:11;97801.59;;;22.90;26.75
16331;BME280;8275;48.206;16.340;2024-02-26T12:39:40;97792.66;;;22.81;26.86
16331;BME280;8275;48.206;16.340;2024-02-26T12:42:10;97803.19;;;22.69;26.89
16331;BME280;8275;48.206;16.340;2024-02-26T12:44:38;97807.34;;;22.59;27.02
16331;BME280;8275;48.206;16.340;2024-02-26T12:47:07;97806.53;;;22.59;27.12
16331;BME280;8275;48.206;16.340;2024-02-26T12:49:37;97810.97;;;22.79;27.14
16331;BME280;8275;48.206;16.340;2024-02-26T12:52:06;97810.78;;;23.14;26.74
16331;BME280;8275;48.206;16.340;2024-02-26T12:54:35;97805.00;;;23.78;26.69
16331;BME280;8275;48.206;16.340;2024-02-26T12:57:07;97801.25;;;24.60;26.15
16331;BME280;8275;48.206;16.340;2024-02-26T12:59:38;97803.91;;;25.23;25.45
16331;BME280;8275;48.206;16.340;2024-02-26T13:02:06;97804.16;;;25.54;24.62
16331;BME280;8275;48.206;16.340;2024-02-26T13:04:36;97805.03;;;25.62;24.79
16331;BME280;8275;48.206;16.340;2024-02-26T13:07:06;97814.97;;;25.52;24.22
16331;BME280;8275;48.206;16.340;2024-02-26T13:09:35;97823.94;;;25.28;24.55
16331;BME280;8275;48.206;16.340;2024-02-26T13:12:05;97826.44;;;24.93;24.29